• Join FlightAware (Why Join?)
  • Login
  • US Flag 
05:38AM EDT


 

Airport Tracker/Info


-or-


 

Live Flight TrackerFlight Track Log ✈ VH-AYT ✈ 19-Jun-2013 ✈ YDAY / DBY - YBAF

Flight Track Log - Related Links

Times and Time Zones

All times are in EDT time to prevent confusion due to time zone crossing. See the VH-AYT flight status page for this flight to view local times or setup timezone preferences in your user account.

Time Position Orientation Groundspeed Altitude Reporting Facility
EDT Latitude Longitude Course Direction KTS MPH feet Rate Location/Type
03:25AM -27.1686 151.3217 278° West 200  Level Aus ATC (Calculated)
03:26AM -27.1624 151.2742 105° East 121 139 3,700 2,640 Climbing Aus ATC (RADAR)
03:26AM -27.1672 151.2949 105° East 119 137 4,300 960 Climbing Aus ATC (RADAR)
03:27AM -27.1787 151.3235 114° Southeast 121 139 5,100 900 Climbing Aus ATC (RADAR)
03:28AM -27.1895 151.3551 111° Southeast 118 136 6,000 900 Climbing Aus ATC (RADAR)
03:29AM -27.1964 151.3757 111° Southeast 121 139 6,500 720 Climbing Aus ATC (RADAR)
03:30AM -27.2077 151.4100 110° East 134 154 7,100 420 Climbing Aus ATC (RADAR)
03:30AM -27.2166 151.4360 111° Southeast 150 173 7,200 -60 Climbing Aus ATC (RADAR)
03:32AM -27.2397 151.5045 111° Southeast 161 185 7,000 -120 Descending Aus ATC (RADAR)
03:32AM -27.2547 151.5491 111° Southeast 163 188 7,000  Level Aus ATC (RADAR)
03:33AM -27.2671 151.5847 112° Southeast 158 182 7,000  Level Aus ATC (RADAR)
03:34AM -27.2775 151.6167 110° East 161 185 7,000  Level Aus ATC (RADAR)
03:35AM -27.2932 151.6620 111° Southeast 151 174 7,000  Level Aus ATC (RADAR)
03:36AM -27.3102 151.7103 112° Southeast 150 173 7,000  Level Aus ATC (RADAR)
03:37AM -27.3235 151.7476 112° Southeast 153 176 7,000  Level Aus ATC (RADAR)
03:38AM -27.3372 151.7901 110° East 156 180 7,000  Level Aus ATC (RADAR)
03:38AM -27.3494 151.8247 112° Southeast 157 181 7,000  Level Aus ATC (RADAR)
03:39AM -27.3580 151.8481 112° Southeast 159 183 7,000  Level Aus ATC (RADAR)
03:40AM -27.3748 151.8946 112° Southeast 159 183 7,000  Level Aus ATC (RADAR)
03:41AM -27.4004 151.9630 113° Southeast 156 180 7,000  Level Aus ATC (RADAR)
03:42AM -27.4161 152.0047 113° Southeast 156 180 7,000  Level Aus ATC (RADAR)
03:43AM -27.4316 152.0466 113° Southeast 157 181 7,000  Level Aus ATC (RADAR)
03:44AM -27.4423 152.0773 111° Southeast 156 180 7,000  Level Aus ATC (RADAR)
03:45AM -27.4549 152.1165 110° East 157 181 7,000  Level Aus ATC (RADAR)
03:46AM -27.4710 152.1753 107° East 155 178 7,000  Level Aus ATC (RADAR)
03:47AM -27.4780 152.1987 108° East 156 180 7,000  Level Aus ATC (RADAR)
03:48AM -27.4920 152.2455 109° East 153 176 7,000  Level Aus ATC (RADAR)
03:48AM -27.5041 152.2799 112° Southeast 155 178 7,000  Level Aus ATC (RADAR)
03:49AM -27.5124 152.3032 112° Southeast 157 181 7,000  Level Aus ATC (RADAR)
03:50AM -27.5280 152.3516 110° East 162 186 7,000  Level Aus ATC (RADAR)
03:51AM -27.5404 152.3914 109° East 158 182 7,000 -60 Level Aus ATC (RADAR)
03:52AM -27.5585 152.4470 110° East 161 185 6,900 -300 Descending Aus ATC (RADAR)
03:53AM -27.5719 152.4894 110° East 168 193 6,400 -540 Descending Aus ATC (RADAR)
03:53AM -27.5846 152.5319 109° East 168 193 6,000 -540 Descending Aus ATC (RADAR)
03:54AM -27.5948 152.5615 111° Southeast 170 196 5,700 -660 Descending Aus ATC (RADAR)
03:55AM -27.6122 152.6260 107° East 171 197 4,900 -720 Descending Aus ATC (RADAR)
03:57AM -27.6307 152.6928 107° East 175 201 4,000 -840 Descending Aus ATC (RADAR)
03:57AM -27.6412 152.7279 109° East 174 200 3,400 -900 Descending Aus ATC (RADAR)
03:58AM -27.6307 152.7696 74° East 182 209 2,800 -240 Descending Aus ATC (RADAR)
03:59AM -27.6140 152.8235 71° East 163 188 3,000 120 Climbing Aus ATC (RADAR)
04:00AM -27.6072 152.8520 75° East 160 184 3,000  Level Aus ATC (RADAR)
04:00AM -27.5998 152.8891 77° East 143 165 3,000  Level Aus ATC (RADAR)
04:02AM -27.5903 152.9336 77° East 133 153 3,100  Climbing Aus ATC (RADAR)
04:02AM -27.5834 152.9603 74° East 131 151 3,000 -600 Descending Aus ATC (RADAR)
04:03AM -27.5802 152.9952 84° East 133 153 2,200 -840 Descending Aus ATC (RADAR)
04:04AM -27.5818 153.0358 93° East 130 150 1,500 -600 Descending Aus ATC (RADAR)
04:05AM -27.5603 153.0249 336° Northwest 132 152 1,200 -300 Descending Aus ATC (RADAR)
04:06AM -27.5501 152.9958 292° West 116 133 1,100 -120 Descending Aus ATC (RADAR)